createdAt,value
2022-12-14T00:00:41.799Z,88.30
2022-12-14T00:03:44.962Z,88.30
2022-12-14T00:06:49.399Z,88.20
2022-12-14T00:09:52.226Z,88.00
2022-12-14T00:12:55.049Z,88.10
2022-12-14T00:15:58.181Z,88.00
2022-12-14T00:19:02.590Z,88.50
2022-12-14T00:22:06.766Z,88.20
2022-12-14T00:25:10.118Z,88.40
2022-12-14T00:28:12.928Z,88.10
2022-12-14T00:31:16.592Z,88.50
2022-12-14T00:34:19.452Z,88.70
2022-12-14T00:37:23.604Z,89.00
2022-12-14T00:40:26.409Z,88.50
2022-12-14T00:43:29.497Z,88.10
2022-12-14T00:46:32.370Z,88.40
2022-12-14T00:49:35.232Z,89.00
2022-12-14T00:52:39.377Z,88.90
2022-12-14T00:55:44.228Z,88.90
2022-12-14T00:58:52.656Z,88.60
2022-12-14T01:01:55.621Z,88.60
2022-12-14T01:04:58.627Z,88.70
2022-12-14T01:08:02.816Z,88.60
2022-12-14T01:11:06.858Z,88.30
2022-12-14T01:14:09.827Z,88.60
2022-12-14T01:17:12.703Z,89.00
2022-12-14T01:20:15.532Z,89.00
2022-12-14T01:23:19.720Z,89.00
2022-12-14T01:26:23.685Z,89.10
2022-12-14T01:29:26.530Z,89.00
2022-12-14T01:32:29.472Z,89.00
2022-12-14T01:35:35.135Z,89.90
2022-12-14T01:38:39.387Z,89.10
2022-12-14T01:41:44.668Z,88.40
2022-12-14T01:44:56.198Z,88.70
2022-12-14T01:48:19.443Z,88.80
2022-12-14T01:51:22.702Z,88.80
2022-12-14T01:54:30.726Z,89.10
2022-12-14T01:57:38.442Z,89.00
2022-12-14T02:00:42.202Z,89.30
2022-12-14T02:03:49.214Z,89.50
2022-12-14T02:06:57.867Z,89.80
2022-12-14T02:10:07.945Z,89.70
2022-12-14T02:13:15.745Z,89.70
2022-12-14T02:16:18.934Z,89.20
2022-12-14T02:19:21.876Z,89.10
2022-12-14T02:23:08.296Z,89.20
2022-12-14T02:26:48.653Z,89.30
2022-12-14T02:30:06.408Z,89.80
2022-12-14T02:33:29.558Z,89.70
2022-12-14T02:36:38.553Z,89.10
2022-12-14T02:39:48.121Z,89.10
2022-12-14T02:42:58.944Z,90.00
2022-12-14T02:46:14.200Z,89.10
2022-12-14T02:49:28.381Z,89.60
2022-12-14T02:52:41.957Z,88.50
2022-12-14T02:55:50.734Z,88.30
2022-12-14T02:58:54.197Z,88.20
2022-12-14T03:01:58.795Z,88.60
2022-12-14T03:05:02.208Z,88.20
2022-12-14T03:08:07.320Z,88.70
2022-12-14T03:11:13.399Z,88.40
2022-12-14T03:14:20.287Z,88.50
2022-12-14T03:17:29.158Z,89.00
2022-12-14T03:20:34.938Z,89.30
2022-12-14T03:23:40.445Z,89.30
2022-12-14T03:26:48.412Z,89.00
2022-12-14T03:29:55.215Z,89.00
2022-12-14T03:33:05.785Z,89.40
2022-12-14T03:36:15.944Z,89.20
2022-12-14T03:39:22.759Z,89.50
2022-12-14T03:42:29.720Z,89.80
2022-12-14T03:45:39.560Z,89.60
2022-12-14T03:48:48.005Z,89.60
2022-12-14T03:51:58.984Z,89.90
2022-12-14T03:55:12.629Z,89.60
2022-12-14T03:58:31.204Z,89.60
2022-12-14T04:01:42.429Z,89.70
2022-12-14T04:04:51.246Z,89.50
2022-12-14T04:08:01.027Z,89.70
2022-12-14T04:11:25.627Z,90.00
2022-12-14T04:14:52.182Z,89.90
2022-12-14T04:18:16.528Z,89.90
2022-12-14T04:21:26.685Z,89.90
2022-12-14T04:24:53.577Z,90.00
2022-12-14T04:27:59.706Z,89.80
2022-12-14T04:31:07.094Z,89.80
2022-12-14T04:34:13.969Z,90.00
2022-12-14T04:37:21.410Z,89.40
2022-12-14T04:40:28.785Z,89.70
2022-12-14T04:43:36.629Z,90.00
2022-12-14T04:46:41.854Z,89.60
2022-12-14T04:49:51.785Z,89.80
2022-12-14T04:53:01.118Z,90.00
2022-12-14T04:56:10.128Z,90.00
2022-12-14T04:59:13.625Z,89.80
2022-12-14T05:02:24.528Z,90.10
2022-12-14T05:05:35.549Z,90.10
2022-12-14T05:09:11.771Z,90.20
2022-12-14T05:12:18.129Z,90.10
2022-12-14T05:15:24.821Z,90.00
2022-12-14T05:18:28.013Z,90.20
2022-12-14T05:21:51.354Z,90.10
2022-12-14T05:24:55.530Z,90.20
2022-12-14T05:27:58.351Z,90.10
2022-12-14T05:31:01.193Z,90.10
2022-12-14T05:34:04.122Z,90.40
2022-12-14T05:37:06.936Z,90.10
2022-12-14T05:40:12.750Z,90.10
2022-12-14T05:43:15.667Z,90.30
2022-12-14T05:46:18.614Z,90.40
2022-12-14T05:49:21.490Z,90.20
2022-12-14T05:52:26.055Z,90.60
2022-12-14T05:55:30.265Z,90.60
2022-12-14T05:58:33.265Z,90.40
2022-12-14T06:01:36.155Z,90.60
2022-12-14T06:04:39.129Z,90.50
2022-12-14T06:07:42.027Z,90.30
2022-12-14T06:10:46.211Z,90.40
2022-12-14T06:13:49.884Z,90.40
2022-12-14T06:16:52.784Z,90.40
2022-12-14T06:19:55.638Z,90.50
2022-12-14T06:22:58.531Z,90.60
2022-12-14T06:26:02.786Z,90.70
2022-12-14T06:29:05.949Z,90.70
2022-12-14T06:32:08.801Z,90.60
2022-12-14T06:35:11.622Z,90.60
2022-12-14T06:38:17.266Z,90.40
2022-12-14T06:41:22.683Z,90.40
2022-12-14T06:44:25.546Z,91.70
2022-12-14T06:47:28.381Z,90.80
2022-12-14T06:50:31.302Z,90.50
2022-12-14T06:53:35.814Z,90.60
2022-12-14T06:56:40.606Z,90.60
2022-12-14T06:59:43.448Z,90.70
2022-12-14T07:02:46.418Z,90.80
2022-12-14T07:05:49.357Z,91.10
2022-12-14T07:08:54.393Z,91.50
2022-12-14T07:11:58.557Z,91.70
2022-12-14T07:15:01.544Z,92.20
2022-12-14T07:18:04.533Z,92.00
2022-12-14T07:21:09.469Z,92.30
2022-12-14T07:24:12.337Z,92.40
2022-12-14T07:27:18.935Z,92.70
2022-12-14T07:30:21.743Z,93.00
2022-12-14T07:33:24.891Z,93.10
2022-12-14T07:36:29.600Z,93.20
2022-12-14T07:39:32.467Z,93.30
2022-12-14T07:42:36.639Z,93.40
2022-12-14T07:45:39.467Z,93.20
2022-12-14T07:48:45.792Z,93.20
2022-12-14T07:51:48.633Z,93.30
2022-12-14T07:54:51.501Z,93.30
2022-12-14T07:57:55.719Z,93.60
2022-12-14T08:01:09.063Z,93.40
2022-12-14T08:04:13.989Z,93.30
2022-12-14T08:07:16.868Z,93.70
2022-12-14T08:10:19.711Z,93.60
2022-12-14T08:13:24.150Z,93.20
2022-12-14T08:16:27.718Z,93.50
2022-12-14T08:19:30.639Z,93.60
2022-12-14T08:22:34.740Z,93.70
2022-12-14T08:25:37.569Z,93.70
2022-12-14T08:28:41.929Z,94.00
2022-12-14T08:31:44.794Z,94.10
2022-12-14T08:34:47.675Z,94.20
2022-12-14T08:37:53.194Z,94.20
2022-12-14T08:40:56.047Z,94.50
2022-12-14T08:44:02.247Z,94.90
2022-12-14T08:47:05.126Z,94.20
2022-12-14T08:50:09.254Z,94.40
2022-12-14T08:53:12.062Z,94.70
2022-12-14T08:56:17.112Z,95.00
2022-12-14T08:59:52.158Z,95.30
2022-12-14T09:02:44.641Z,95.70
2022-12-14T09:05:47.766Z,95.50
2022-12-14T09:08:50.750Z,95.60
2022-12-14T09:11:53.735Z,95.40
2022-12-14T09:14:57.934Z,95.70
2022-12-14T09:18:00.839Z,95.60
2022-12-14T09:21:04.558Z,95.40
2022-12-14T09:24:07.509Z,95.40
2022-12-14T09:27:10.444Z,95.80
2022-12-14T09:30:15.078Z,95.50
2022-12-14T09:33:17.889Z,95.80
2022-12-14T09:36:22.054Z,95.80
2022-12-14T09:39:25.666Z,95.80
2022-12-14T09:42:43.859Z,96.00
2022-12-14T09:46:00.765Z,96.40
2022-12-14T09:49:04.685Z,96.20
2022-12-14T09:52:11.404Z,96.10
2022-12-14T09:55:21.257Z,95.90
2022-12-14T09:58:27.894Z,96.20
2022-12-14T10:02:29.298Z,96.10
2022-12-14T10:05:30.431Z,96.20
2022-12-14T10:08:42.895Z,96.20
2022-12-14T10:11:53.247Z,96.10
2022-12-14T10:15:05.897Z,96.10
2022-12-14T10:18:57.104Z,96.00
2022-12-14T10:21:51.732Z,96.10
2022-12-14T10:25:05.466Z,96.00
2022-12-14T10:28:19.605Z,95.90
2022-12-14T10:31:30.458Z,96.00
2022-12-14T10:34:35.674Z,95.90
2022-12-14T10:37:43.432Z,96.20
2022-12-14T10:40:53.761Z,96.40
2022-12-14T10:44:02.072Z,96.50
2022-12-14T10:47:11.515Z,96.80
2022-12-14T10:50:21.665Z,96.80
2022-12-14T10:53:29.120Z,97.00
2022-12-14T10:56:35.279Z,96.60
2022-12-14T10:59:44.709Z,96.80
2022-12-14T11:02:55.308Z,96.80
2022-12-14T11:06:04.732Z,97.00
2022-12-14T11:09:21.171Z,97.20
2022-12-14T11:12:26.710Z,97.20
2022-12-14T11:15:33.209Z,97.10
2022-12-14T11:18:36.163Z,97.20
2022-12-14T11:21:40.724Z,97.00
2022-12-14T11:24:49.615Z,97.60
2022-12-14T11:27:53.969Z,97.30
2022-12-14T11:31:02.906Z,97.40
2022-12-14T11:34:07.941Z,98.00
2022-12-14T11:37:21.743Z,97.60
2022-12-14T11:40:27.030Z,97.40
2022-12-14T11:43:34.482Z,97.70
2022-12-14T11:46:46.135Z,97.40
2022-12-14T11:49:51.561Z,97.80
2022-12-14T11:53:11.002Z,97.90
2022-12-14T11:56:18.454Z,97.70
2022-12-14T11:59:21.281Z,98.10
2022-12-14T12:02:28.423Z,98.10
2022-12-14T12:05:34.138Z,98.20
2022-12-14T12:08:40.644Z,97.90
2022-12-14T12:11:46.293Z,97.90
2022-12-14T12:14:55.444Z,97.80
2022-12-14T12:18:02.660Z,97.80
2022-12-14T12:21:10.998Z,98.00
2022-12-14T12:24:19.407Z,97.90
2022-12-14T12:27:23.340Z,98.20
2022-12-14T12:30:29.430Z,98.20
2022-12-14T12:33:41.733Z,98.50
2022-12-14T12:37:09.643Z,98.60
2022-12-14T12:40:17.133Z,98.40
2022-12-14T12:43:27.137Z,98.60
2022-12-14T12:46:37.887Z,98.70
2022-12-14T12:49:46.840Z,98.80
2022-12-14T12:53:01.129Z,98.90
2022-12-14T12:56:12.411Z,98.80
2022-12-14T12:59:20.086Z,99.00
2022-12-14T13:02:30.762Z,99.30
2022-12-14T13:05:48.492Z,99.00
2022-12-14T13:08:57.949Z,99.10
2022-12-14T13:12:04.249Z,99.00
2022-12-14T13:15:16.278Z,98.90
2022-12-14T13:18:55.990Z,98.80
2022-12-14T13:21:52.093Z,98.80
2022-12-14T13:24:59.626Z,98.90
2022-12-14T13:28:17.910Z,99.00
2022-12-14T13:31:32.541Z,99.00
2022-12-14T13:34:49.642Z,99.20
2022-12-14T13:38:34.415Z,98.70
2022-12-14T13:41:42.247Z,99.00
2022-12-14T13:44:59.023Z,99.00
2022-12-14T13:48:02.078Z,98.80
2022-12-14T13:51:07.205Z,98.60
2022-12-14T13:54:22.663Z,98.80
2022-12-14T13:57:26.861Z,99.00
2022-12-14T14:00:56.129Z,99.10
2022-12-14T14:04:20.358Z,99.00
2022-12-14T14:07:51.598Z,99.40
2022-12-14T14:11:20.629Z,99.30
2022-12-14T14:14:28.750Z,99.50
2022-12-14T14:17:39.845Z,99.60
2022-12-14T14:20:45.415Z,99.40
2022-12-14T14:23:56.191Z,99.50
2022-12-14T14:27:01.865Z,99.40
2022-12-14T14:30:21.983Z,99.50
2022-12-14T14:33:50.105Z,99.70
2022-12-14T14:36:53.635Z,99.80
2022-12-14T14:40:44.249Z,99.70
2022-12-14T14:43:52.596Z,99.70
2022-12-14T14:46:58.108Z,99.90
2022-12-14T14:50:05.681Z,99.90
2022-12-14T14:53:25.840Z,99.90
2022-12-14T14:56:36.834Z,99.90
2022-12-14T14:59:50.909Z,99.90
2022-12-14T15:02:56.542Z,99.90
2022-12-14T15:06:01.113Z,99.90
2022-12-14T15:09:08.300Z,99.90
2022-12-14T15:12:25.764Z,99.90
2022-12-14T15:15:35.877Z,99.90
2022-12-14T15:18:38.866Z,99.90
2022-12-14T15:21:43.157Z,99.90
2022-12-14T15:24:48.732Z,99.90
2022-12-14T15:27:52.819Z,99.90
2022-12-14T15:30:58.191Z,99.90
2022-12-14T15:34:01.811Z,99.90
2022-12-14T15:37:06.082Z,99.90
2022-12-14T15:40:13.829Z,99.90
2022-12-14T15:43:19.127Z,99.90
2022-12-14T15:46:27.620Z,99.90
2022-12-14T15:49:30.614Z,99.90
2022-12-14T15:52:35.530Z,99.90
2022-12-14T15:55:41.507Z,99.90
2022-12-14T15:58:45.545Z,99.90
2022-12-14T16:02:04.945Z,99.90
2022-12-14T16:05:16.419Z,99.90
2022-12-14T16:08:20.910Z,99.90
2022-12-14T16:11:28.885Z,99.90
2022-12-14T16:14:35.189Z,99.90
2022-12-14T16:17:38.822Z,99.90
2022-12-14T16:20:44.664Z,99.90
2022-12-14T16:23:50.139Z,99.90
2022-12-14T16:26:58.151Z,99.90
2022-12-14T16:30:23.649Z,99.90
2022-12-14T16:33:27.408Z,99.90
2022-12-14T16:36:33.245Z,99.90
2022-12-14T16:39:40.460Z,99.90
2022-12-14T16:42:45.496Z,99.90
2022-12-14T16:46:09.017Z,99.90
2022-12-14T16:49:21.574Z,99.90
2022-12-14T16:52:28.132Z,99.90
2022-12-14T16:55:32.430Z,99.90
2022-12-14T16:58:36.905Z,99.90
2022-12-14T17:01:44.349Z,99.90
2022-12-14T17:04:53.501Z,99.90
2022-12-14T17:07:56.821Z,99.90
2022-12-14T17:11:02.149Z,99.90
2022-12-14T17:14:05.144Z,99.90
2022-12-14T17:17:08.566Z,99.90
2022-12-14T17:20:20.386Z,99.90
2022-12-14T17:23:23.480Z,99.90
2022-12-14T17:26:33.146Z,99.90
2022-12-14T17:29:36.119Z,99.90
2022-12-14T17:32:39.625Z,99.90
2022-12-14T17:35:42.629Z,99.90
2022-12-14T17:39:13.723Z,99.90
2022-12-14T17:42:20.444Z,99.90
2022-12-14T17:45:26.600Z,99.90
2022-12-14T17:48:30.033Z,99.90
2022-12-14T17:51:33.317Z,99.90
2022-12-14T17:54:36.234Z,99.90
2022-12-14T17:57:40.471Z,99.90
2022-12-14T18:01:01.874Z,99.90
2022-12-14T18:04:04.998Z,99.90
2022-12-14T18:07:08.208Z,99.90
2022-12-14T18:10:14.124Z,99.90
2022-12-14T18:13:19.089Z,99.90
2022-12-14T18:16:24.332Z,99.90
2022-12-14T18:19:27.347Z,99.90
2022-12-14T18:22:30.701Z,99.90
2022-12-14T18:25:35.661Z,99.90
2022-12-14T18:28:42.362Z,99.90
2022-12-14T18:31:45.428Z,99.90
2022-12-14T18:34:52.616Z,99.90
2022-12-14T18:37:55.624Z,99.90
2022-12-14T18:41:01.666Z,99.90
2022-12-14T18:44:06.199Z,99.90
2022-12-14T18:47:33.644Z,99.90
2022-12-14T18:50:32.125Z,99.90
2022-12-14T18:53:35.240Z,99.90
2022-12-14T18:56:38.208Z,99.90
2022-12-14T18:59:42.844Z,99.90
2022-12-14T19:02:46.962Z,99.90
2022-12-14T19:05:53.244Z,99.90
2022-12-14T19:08:57.070Z,99.90
2022-12-14T19:12:00.117Z,99.90
2022-12-14T19:15:04.715Z,99.90
2022-12-14T19:18:07.606Z,99.90
2022-12-14T19:21:11.160Z,99.90
2022-12-14T19:24:14.942Z,99.90
2022-12-14T19:27:36.313Z,99.90
2022-12-14T19:30:44.054Z,99.90
2022-12-14T19:33:47.046Z,99.90
2022-12-14T19:36:49.945Z,99.90
2022-12-14T19:39:54.640Z,99.90
2022-12-14T19:42:57.515Z,99.90
2022-12-14T19:46:01.878Z,99.90
2022-12-14T19:49:04.852Z,99.90
2022-12-14T19:52:08.375Z,99.90
2022-12-14T19:55:12.816Z,99.90
2022-12-14T19:58:15.721Z,99.90
2022-12-14T20:01:20.043Z,99.90
2022-12-14T20:04:23.182Z,99.90
2022-12-14T20:07:26.080Z,99.90
2022-12-14T20:10:28.953Z,99.90
2022-12-14T20:13:32.339Z,99.90
2022-12-14T20:16:37.291Z,99.90
2022-12-14T20:19:41.049Z,99.90
2022-12-14T20:22:44.231Z,99.90
2022-12-14T20:25:47.261Z,99.90
2022-12-14T20:28:51.017Z,99.90
2022-12-14T20:31:56.283Z,99.90
2022-12-14T20:34:59.357Z,99.90
2022-12-14T20:38:02.304Z,99.90
2022-12-14T20:41:06.254Z,99.90
2022-12-14T20:44:11.826Z,99.90
2022-12-14T20:47:16.197Z,99.90
2022-12-14T20:50:19.459Z,99.90
2022-12-14T20:53:22.345Z,99.90
2022-12-14T20:56:25.812Z,99.90
2022-12-14T20:59:28.735Z,99.90
2022-12-14T21:02:33.415Z,99.90
2022-12-14T21:05:40.958Z,99.90
2022-12-14T21:09:01.281Z,99.90
2022-12-14T21:12:22.517Z,99.90
2022-12-14T21:15:25.523Z,99.90
2022-12-14T21:18:29.772Z,99.90
2022-12-14T21:21:32.690Z,99.90
2022-12-14T21:25:01.808Z,99.90
2022-12-14T21:27:59.557Z,99.90
2022-12-14T21:31:04.147Z,99.90
2022-12-14T21:34:09.428Z,99.90
2022-12-14T21:37:14.091Z,99.90
2022-12-14T21:40:37.021Z,99.90
2022-12-14T21:43:39.021Z,99.90
2022-12-14T21:46:41.948Z,99.90
2022-12-14T21:49:46.879Z,99.90
2022-12-14T21:52:49.884Z,99.90
2022-12-14T21:56:13.115Z,99.90
2022-12-14T21:59:16.815Z,99.90
2022-12-14T22:02:22.790Z,99.90
2022-12-14T22:05:27.149Z,99.90
2022-12-14T22:08:31.232Z,99.90
2022-12-14T22:11:34.918Z,99.90
2022-12-14T22:14:38.747Z,99.90
2022-12-14T22:17:41.610Z,99.90
2022-12-14T22:20:45.868Z,99.90
2022-12-14T22:23:48.729Z,99.90
2022-12-14T22:26:52.376Z,99.90
2022-12-14T22:29:55.270Z,99.90
2022-12-14T22:32:58.530Z,99.90
2022-12-14T22:36:02.761Z,99.90
2022-12-14T22:39:05.626Z,99.90
2022-12-14T22:42:08.567Z,99.90
2022-12-14T22:45:11.828Z,99.90
2022-12-14T22:48:14.701Z,99.90
2022-12-14T22:51:19.805Z,99.90
2022-12-14T22:54:24.690Z,99.90
2022-12-14T22:57:28.681Z,99.90
2022-12-14T23:00:31.589Z,99.90
2022-12-14T23:03:35.268Z,99.90
2022-12-14T23:06:40.307Z,99.90
2022-12-14T23:10:00.985Z,99.90
2022-12-14T23:13:21.152Z,99.90
2022-12-14T23:16:41.749Z,99.90
2022-12-14T23:20:04.900Z,99.90
2022-12-14T23:23:27.400Z,99.90
2022-12-14T23:26:48.107Z,99.90
2022-12-14T23:30:08.205Z,99.70
2022-12-14T23:33:29.000Z,99.70
2022-12-14T23:36:49.836Z,99.30
2022-12-14T23:40:11.774Z,99.80
2022-12-14T23:43:34.358Z,99.60
2022-12-14T23:46:55.134Z,99.00
2022-12-14T23:50:15.700Z,98.70
2022-12-14T23:53:35.963Z,98.60
2022-12-14T23:56:57.460Z,99.00
